Latest Coastal Weather Observations for Low Rocky Point

IDT60701

Issued at 5:12 pm EDT Monday 20 February 2017 (issued every 10 minutes, with the page automatically refreshed every 10 minutes)

About coastal observations | Map of coastal stations | Coastal observations for TAS | Marine services | Other Formats
Station Details ID: 097080 Name: LOW ROCKY POINT Lat: -42.98 Lon: 145.50 Height: 34.0 m
Data from the previous 72 hours. | See also: Recent months at Low Rocky Point
Date/Time
EDT
Temp
°C
Wind Pressure Rain since
9am
mm
Weather Cloud Vis
km
Sea
Height
m
Swell
Dir  Spd
kts
Gust
kts
hPa Trend Height
m
Period
s
Dir
20/05:00pm 17.2 S 18 23 1010.2 - 0.0 - - - - - - -
20/04:30pm 18.6 S 12 17 1010.1 - 0.0 - - - - - - -
20/04:00pm 18.3 S 12 16 1009.9 - 0.0 - - - - - - -
20/03:30pm 18.5 SSW 11 14 1009.7 - 0.0 - - - - - - -
20/03:00pm 18.6 SSW 9 13 1009.7 - 0.0 - - - - - - -
20/02:30pm 17.8 SSW 10 14 1009.8 - 0.0 - - - - - - -
20/02:00pm 17.7 S 9 13 1009.6 - 0.0 - - - - - - -
20/01:30pm 17.6 SSW 9 12 1009.8 - 0.0 - - - - - - -
20/01:00pm 17.1 S 9 11 1010.0 - 0.0 - - - - - - -
20/12:30pm 16.8 S 9 11 1010.0 - 0.0 - - - - - - -
20/12:00pm 16.3 S 8 11 1009.9 - 0.0 - - - - - - -
20/11:30am 16.1 S 7 10 1010.0 - 0.0 - - - - - - -
20/11:00am 15.3 S 6 8 1009.9 - 0.0 - - - - - - -
20/10:30am 14.0 SSE 5 7 1009.9 - 0.0 - - - - - - -
20/10:00am 14.0 SSE 5 6 1009.4 - 0.0 - - - - - - -
20/09:30am 13.9 ESE 4 6 1009.0 - 0.0 - - - - - - -
20/09:00am 13.4 ENE 4 6 1009.1 - 0.8 - - - - - - -
20/08:30am 11.4 NE 6 8 1008.9 - 0.8 - - - - - - -
20/08:00am 9.2 NE 10 12 1008.6 - 0.8 - - - - - - -
20/07:30am 7.8 NNE 10 11 1008.5 - 0.8 - - - - - - -
20/07:00am 7.2 NE 9 10 1008.1 - 0.8 - - - - - - -
20/06:30am 8.2 ENE 4 6 1007.8 - 0.8 - - - - - - -
20/06:00am 8.3 NE 7 8 1007.4 - 0.8 - - - - - - -
20/05:30am 7.9 NE 8 10 1007.2 - 0.8 - - - - - - -
20/05:00am 8.4 NE 5 6 1007.0 - 0.8 - - - - - - -
20/04:30am 8.5 ENE 5 6 1007.0 - 0.8 - - - - - - -
20/04:00am 10.4 S 4 6 1007.0 - 0.8 - - - - - - -
20/03:30am 10.0 SSE 3 5 1007.1 - 0.8 - - - - - - -
20/03:00am 9.1 NNE 1 3 1007.0 - 0.8 - - - - - - -
20/02:30am 8.9 N 4 5 1007.0 - 0.8 - - - - - - -
20/02:00am 8.6 NNE 8 10 1007.0 - 0.8 - - - - - - -
20/01:30am 8.4 NNE 8 9 1007.0 - 0.8 - - - - - - -
20/01:00am 9.0 NNE 8 10 1007.1 - 0.8 - - - - - - -
20/12:30am 8.5 NNE 11 13 1007.3 - 0.8 - - - - - - -
20/12:00am 8.6 NNE 10 12 1007.2 - 0.8 - - - - - - -
 
Date/Time
EDT
Temp
°C
Wind Pressure Rain since
9am
mm
Weather Cloud Vis
km
Sea
Height
m
Swell
Dir  Spd
kts
Gust
kts
hPa Trend Height
m
Period
s
Dir
19/11:30pm 8.6 NNE 10 11 1007.1 - 0.8 - - - - - - -
19/11:00pm 8.9 NNE 9 10 1007.4 - 0.8 - - - - - - -
19/10:30pm 9.2 NE 9 11 1007.3 - 0.8 - - - - - - -
19/10:00pm 11.1 CALM 0 0 1007.2 - 0.8 - - - - - - -
19/09:30pm 10.0 N 5 6 1007.0 - 0.8 - - - - - - -
19/09:00pm 10.3 NNE 6 7 1006.8 - 0.8 - - - - - - -
19/08:30pm 11.2 NNE 6 10 1006.5 - 0.8 - - - - - - -
19/08:00pm 13.2 SSE 11 14 1005.9 - 0.8 - - - - - - -
19/07:30pm 13.3 SSE 13 18 1005.6 - 0.8 - - - - - - -
19/07:00pm 14.5 S 13 18 1005.3 - 0.8 - - - - - - -
19/06:30pm 14.8 SSE 13 17 1004.9 - 0.8 - - - - - - -
19/06:00pm 15.1 S 12 16 1004.8 - 0.8 - - - - - - -
19/05:30pm 15.3 S 12 16 1004.6 - 0.8 - - - - - - -
19/05:00pm 15.5 SSE 12 15 1004.4 - 0.8 - - - - - - -
19/04:30pm 15.4 S 11 15 1004.1 - 0.8 - - - - - - -
19/04:00pm 15.5 S 11 15 1004.2 - 0.8 - - - - - - -
19/03:30pm 15.7 S 11 15 1004.2 - 0.8 - - - - - - -
19/03:00pm 15.3 SSE 9 11 1004.3 - 0.8 - - - - - - -
19/02:30pm 15.2 S 7 10 1004.2 - 0.8 - - - - - - -
19/02:00pm 14.8 S 7 9 1004.3 - 0.8 - - - - - - -
19/01:30pm 14.7 SSE 6 8 1004.2 - 0.8 - - - - - - -
19/01:00pm 13.3 W 5 7 1004.2 - 0.8 - - - - - - -
19/12:30pm 12.4 WNW 4 6 1004.5 - 0.8 - - - - - - -
19/12:00pm 11.7 S 2 6 1004.5 - 0.8 Rain - - - - - -
19/11:30am 11.4 NNE 3 5 1004.5 - 0.0 - - - - - - -
19/11:00am 10.8 NNE 4 5 1004.2 - 0.0 - - - - - - -
19/10:30am 10.6 NW 5 7 1003.9 - 0.0 - - - - - - -
19/10:00am 11.0 NNE 3 6 1003.7 - 0.0 - - - - - - -
19/09:30am 9.5 NNE 5 7 1003.7 - 0.0 - - - - - - -
19/09:00am 9.4 E 3 5 1003.4 - 43.4 - - - - - - -
19/08:30am 8.7 NE 7 10 1002.9 - 43.4 - - - - - - -
19/08:00am 8.2 NNE 8 11 1002.7 - 43.4 Recent precip. - - - - - -
19/07:30am 8.1 NE 7 10 1002.5 - 43.4 - - - - - - -
19/07:00am 8.1 N 9 11 1002.3 - 42.6 Rain - - - - - -
19/06:30am 8.1 N 8 14 1001.9 - 41.2 - - - - - - -
19/06:00am 8.2 NNE 9 13 1001.5 - 40.4 Rain - - - - - -
19/05:30am 8.3 N 7 9 1001.4 - 38.6 - - - - - - -
19/05:00am 8.1 NNE 8 13 1001.2 - 37.4 Recent precip. - - - - - -
19/04:30am 8.4 NNE 10 13 1001.1 - 35.6 - - - - - - -
19/04:00am 8.6 NE 9 14 1001.0 - 35.2 Recent precip. - - - - - -
19/03:30am 9.0 W 4 7 1001.2 - 33.0 - - - - - - -
19/03:00am 8.8 NE 7 9 1001.5 - 27.2 Rain - - - - - -
19/02:30am 9.0 N 8 14 1001.9 - 20.6 - - - - - - -
19/02:00am 8.8 NNE 10 13 1001.9 - 17.6 Rain - - - - - -
19/01:30am 8.8 N 11 15 1002.1 - 16.0 - - - - - - -
19/01:00am 9.1 NNW 19 26 1002.4 - 14.8 Rain - - - - - -
19/12:56am 9.1 NW 18 26 1002.4 - 14.8 - - - - - - -
19/12:30am 9.1 N 15 22 1002.3 - 12.6 - - - - - - -
19/12:00am 9.2 NNW 11 20 1002.8 - 9.8 Rain - - - - - -
 
Date/Time
EDT
Temp
°C
Wind Pressure Rain since
9am
mm
Weather Cloud Vis
km
Sea
Height
m
Swell
Dir  Spd
kts
Gust
kts
hPa Trend Height
m
Period
s
Dir
18/11:30pm 9.8 N 14 19 1003.0 - 8.6 - - - - - - -
18/11:26pm 9.4 N 15 22 1003.0 - 8.4 - - - - - - -
18/11:00pm 9.8 NNW 9 12 1003.3 - 6.0 Recent precip. - - - - - -
18/10:45pm 10.6 NNW 18 27 1003.6 - 6.0 - - - - - - -
18/10:30pm 11.2 NNW 21 30 1003.4 - 6.0 - - - - - - -
18/10:16pm 10.6 NNW 16 30 1003.6 - 6.0 - - - - - - -
18/10:00pm 9.4 N 15 23 1003.9 - 5.6 Rain - - - - - -
18/09:30pm 9.5 N 14 20 1004.3 - 3.8 - - - - - - -
18/09:00pm 11.1 NNW 17 27 1004.0 - 3.6 Recent precip. - - - - - -
18/08:49pm 9.7 N 15 25 1004.0 - 3.6 - - - - - - -
18/08:30pm 10.6 N 13 19 1004.0 - 2.6 - - - - - - -
18/08:14pm 11.0 N 13 17 1004.0 - 2.4 - - - - - - -
18/08:00pm 12.6 NW 24 30 1003.9 - 2.4 - - - - - - -
18/07:30pm 12.8 NW 24 34 1003.9 - 2.4 - - - - - - -
18/07:01pm 12.5 NNW 20 30 1004.1 - 2.4 - - - - - - -
18/07:00pm 12.6 NNW 21 30 1004.1 - 2.4 - - - - - - -
18/06:30pm 13.1 NW 24 29 1004.2 - 2.4 - - - - - - -
18/06:00pm 13.5 NW 24 31 1004.4 - 2.4 - - - - - - -
18/05:30pm 13.3 NW 24 31 1004.6 - 2.4 - - - - - - -
18/05:00pm 13.1 NW 24 30 1004.8 - 2.4 - - - - - - -
18/04:30pm 12.5 NW 23 32 1004.9 - 2.4 - - - - - - -
18/04:18pm 12.7 NW 18 27 1005.1 - 2.4 - - - - - - -
18/04:00pm 11.3 NNW 15 19 1005.6 - 2.4 Recent precip. - - - - - -
18/03:41pm 11.0 NW 21 37 1005.6 - 1.0 - - - - - - -
18/03:34pm 11.2 WNW 28 36 1005.7 - 0.6 - - - - - - -
18/03:30pm 11.9 WNW 28 36 1005.5 - 0.2 - - - - - - -
18/03:03pm 14.5 NW 21 31 1005.4 - 0.2 - - - - - - -
18/03:00pm 13.6 NW 20 27 1005.5 - 0.2 - - - - - - -
18/02:30pm 15.2 NW 22 27 1005.9 - 0.2 - - - - - - -
18/02:00pm 14.3 NW 22 28 1005.9 - 0.2 - - - - - - -
18/01:30pm 14.3 NW 23 33 1005.7 - 0.2 - - - - - - -
18/01:00pm 14.2 NW 19 27 1005.9 - 0.2 Recent precip. - - - - - -
18/12:30pm 14.7 NW 17 21 1006.2 - 0.0 - - - - - - -
18/12:00pm 14.1 NW 22 27 1006.0 - 0.0 - - - - - - -
18/11:30am 14.3 NW 20 25 1006.1 - 0.0 - - - - - - -
18/11:00am 14.2 WNW 19 23 1006.1 - 0.0 - - - - - - -
18/10:30am 12.5 WNW 20 24 1006.0 - 0.0 - - - - - - -
18/10:00am 13.2 WNW 18 23 1006.1 - 0.0 - - - - - - -
18/09:30am 13.0 WNW 19 25 1005.8 - 0.0 - - - - - - -
18/09:00am 12.9 NW 21 25 1005.6 - 6.0 - - - - - - -
18/08:30am 12.3 WNW 23 27 1005.4 - 6.0 - - - - - - -
18/08:00am 11.3 WNW 21 28 1005.3 - 6.0 - - - - - - -
18/07:30am 12.3 WNW 18 23 1005.1 - 6.0 - - - - - - -
18/07:00am 12.2 WNW 20 25 1004.9 - 6.0 - - - - - - -
18/06:30am 12.0 WNW 18 23 1004.6 - 6.0 - - - - - - -
18/06:00am 12.1 WNW 20 25 1004.4 - 6.0 - - - - - - -
18/05:30am 11.8 WNW 22 27 1004.2 - 6.0 - - - - - - -
18/05:00am 11.9 NW 21 26 1004.1 - 6.0 - - - - - - -
18/04:30am 11.6 WNW 21 25 1004.1 - 6.0 - - - - - - -
18/04:00am 11.1 WNW 21 26 1004.2 - 6.0 Recent precip. - - - - - -
18/03:30am 10.7 WNW 21 27 1004.1 - 6.0 - - - - - - -
18/03:03am 10.3 WNW 27 37 1004.3 - 5.6 - - - - - - -
18/03:00am 11.0 WNW 28 37 1004.2 - 5.6 - - - - - - -
18/02:56am 11.9 WNW 24 37 1004.0 - 5.6 - - - - - - -
18/02:30am 11.8 WNW 19 23 1004.1 - 5.6 - - - - - - -
18/02:00am 12.3 WNW 23 27 1004.2 - 5.6 - - - - - - -
18/01:30am 12.1 WNW 24 29 1004.1 - 5.6 - - - - - - -
18/01:00am 12.5 WNW 22 28 1004.1 - 5.6 - - - - - - -
18/12:30am 12.5 WNW 25 31 1004.3 - 5.6 - - - - - - -
18/12:00am 12.4 WNW 20 23 1004.2 - 5.6 - - - - - - -
 
Date/Time
EDT
Temp
°C
Wind Pressure Rain since
9am
mm
Weather Cloud Vis
km
Sea
Height
m
Swell
Dir  Spd
kts
Gust
kts
hPa Trend Height
m
Period
s
Dir
17/11:30pm 12.2 WNW 24 29 1004.3 - 5.6 - - - - - - -
17/11:00pm 11.8 WNW 28 37 1004.3 - 5.6 - - - - - - -
17/10:55pm 12.9 NW 24 34 1004.1 - 5.6 - - - - - - -
17/10:30pm 12.3 NW 23 29 1004.3 - 5.6 - - - - - - -
17/10:00pm 12.0 NW 22 27 1004.2 - 5.6 Recent precip. - - - - - -
17/09:30pm 11.7 NW 22 27 1003.9 - 5.6 - - - - - - -
17/09:01pm 11.1 WNW 25 35 1003.4 - 5.4 - - - - - - -
17/09:00pm 11.1 WNW 26 35 1003.4 - 5.4 Rain - - - - - -
17/08:35pm 11.0 WNW 24 34 1003.5 - 5.2 - - - - - - -
17/08:30pm 11.0 WNW 27 34 1003.3 - 4.6 - - - - - - -
17/08:00pm 13.6 NW 24 31 1003.0 - 4.2 - - - - - - -
17/07:30pm 13.9 NW 21 26 1002.9 - 4.2 - - - - - - -
17/07:00pm 13.8 WNW 22 27 1002.5 - 4.2 - - - - - - -
17/06:30pm 14.3 NW 23 28 1002.5 - 4.2 - - - - - - -
17/06:00pm 14.9 NW 24 29 1002.6 - 4.2 - - - - - - -
17/05:30pm 14.1 NW 25 30 1002.5 - 4.2 - - - - - - -

Other Formats:

Comma delimited format used in spreadsheet applications
http://www.bom.gov.au/fwo/IDT60701/IDT60701.95961.axf

JavaScript Object Notation format (JSON) in row-major order
http://www.bom.gov.au/fwo/IDT60701/IDT60701.95961.json